sensor_id;sensor_type;location;lat;lon;timestamp;P1;durP1;ratioP1;P2;durP2;ratioP2
19280;SDS011;9774;52.034;5.342;2022-09-09T00:01:58;0.45;;;0.45;;
19280;SDS011;9774;52.034;5.342;2022-09-09T00:04:29;0.95;;;0.50;;
19280;SDS011;9774;52.034;5.342;2022-09-09T00:07:01;0.98;;;0.40;;
19280;SDS011;9774;52.034;5.342;2022-09-09T00:09:36;1.20;;;0.38;;
19280;SDS011;9774;52.034;5.342;2022-09-09T00:12:11;0.63;;;0.43;;
19280;SDS011;9774;52.034;5.342;2022-09-09T00:14:43;1.98;;;0.80;;
19280;SDS011;9774;52.034;5.342;2022-09-09T00:17:18;1.25;;;0.65;;
19280;SDS011;9774;52.034;5.342;2022-09-09T00:19:59;1.70;;;0.75;;
19280;SDS011;9774;52.034;5.342;2022-09-09T00:22:35;0.63;;;0.50;;
19280;SDS011;9774;52.034;5.342;2022-09-09T00:25:10;2.45;;;0.50;;
19280;SDS011;9774;52.034;5.342;2022-09-09T00:27:43;0.57;;;0.43;;
19280;SDS011;9774;52.034;5.342;2022-09-09T00:30:14;2.45;;;0.98;;
19280;SDS011;9774;52.034;5.342;2022-09-09T00:32:45;0.80;;;0.50;;
19280;SDS011;9774;52.034;5.342;2022-09-09T00:35:17;1.02;;;0.80;;
19280;SDS011;9774;52.034;5.342;2022-09-09T00:37:50;1.88;;;0.52;;
19280;SDS011;9774;52.034;5.342;2022-09-09T00:40:24;0.63;;;0.50;;
19280;SDS011;9774;52.034;5.342;2022-09-09T00:43:01;0.88;;;0.55;;
19280;SDS011;9774;52.034;5.342;2022-09-09T00:48:43;0.55;;;0.45;;
19280;SDS011;9774;52.034;5.342;2022-09-09T00:51:21;1.63;;;0.68;;
19280;SDS011;9774;52.034;5.342;2022-09-09T00:53:58;2.00;;;1.00;;
19280;SDS011;9774;52.034;5.342;2022-09-09T00:56:37;1.45;;;0.60;;
19280;SDS011;9774;52.034;5.342;2022-09-09T00:59:12;0.63;;;0.63;;
19280;SDS011;9774;52.034;5.342;2022-09-09T01:01:51;1.40;;;0.77;;
19280;SDS011;9774;52.034;5.342;2022-09-09T01:04:21;0.68;;;0.45;;
19280;SDS011;9774;52.034;5.342;2022-09-09T01:06:57;0.60;;;0.50;;
19280;SDS011;9774;52.034;5.342;2022-09-09T01:09:34;2.17;;;0.73;;
19280;SDS011;9774;52.034;5.342;2022-09-09T01:12:14;2.58;;;1.00;;
19280;SDS011;9774;52.034;5.342;2022-09-09T01:14:43;1.38;;;0.50;;
19280;SDS011;9774;52.034;5.342;2022-09-09T01:17:15;1.23;;;0.60;;
19280;SDS011;9774;52.034;5.342;2022-09-09T01:19:50;1.73;;;0.70;;
19280;SDS011;9774;52.034;5.342;2022-09-09T01:22:26;0.93;;;0.60;;
19280;SDS011;9774;52.034;5.342;2022-09-09T01:25:09;1.80;;;0.65;;
19280;SDS011;9774;52.034;5.342;2022-09-09T01:27:54;1.85;;;0.80;;
19280;SDS011;9774;52.034;5.342;2022-09-09T01:30:24;1.15;;;0.57;;
19280;SDS011;9774;52.034;5.342;2022-09-09T01:32:54;1.48;;;0.90;;
19280;SDS011;9774;52.034;5.342;2022-09-09T01:35:29;2.08;;;0.65;;
19280;SDS011;9774;52.034;5.342;2022-09-09T01:38:04;3.03;;;0.57;;
19280;SDS011;9774;52.034;5.342;2022-09-09T01:40:31;1.90;;;0.85;;
19280;SDS011;9774;52.034;5.342;2022-09-09T01:43:01;2.67;;;0.90;;
19280;SDS011;9774;52.034;5.342;2022-09-09T01:45:28;1.42;;;0.77;;
19280;SDS011;9774;52.034;5.342;2022-09-09T01:47:57;1.20;;;0.60;;
19280;SDS011;9774;52.034;5.342;2022-09-09T01:50:25;1.13;;;0.95;;
19280;SDS011;9774;52.034;5.342;2022-09-09T01:52:53;0.88;;;0.75;;
19280;SDS011;9774;52.034;5.342;2022-09-09T01:55:26;0.90;;;0.70;;
19280;SDS011;9774;52.034;5.342;2022-09-09T01:57:58;2.17;;;1.13;;
19280;SDS011;9774;52.034;5.342;2022-09-09T02:00:38;3.13;;;1.02;;
19280;SDS011;9774;52.034;5.342;2022-09-09T02:03:16;1.38;;;0.85;;
19280;SDS011;9774;52.034;5.342;2022-09-09T02:05:51;1.77;;;1.10;;
19280;SDS011;9774;52.034;5.342;2022-09-09T02:08:26;1.15;;;0.95;;
19280;SDS011;9774;52.034;5.342;2022-09-09T02:11:01;1.30;;;0.90;;
19280;SDS011;9774;52.034;5.342;2022-09-09T02:13:34;1.80;;;1.13;;
19280;SDS011;9774;52.034;5.342;2022-09-09T02:16:04;3.80;;;1.10;;
19280;SDS011;9774;52.034;5.342;2022-09-09T02:18:35;1.63;;;1.33;;
19280;SDS011;9774;52.034;5.342;2022-09-09T02:21:07;1.30;;;1.20;;
19280;SDS011;9774;52.034;5.342;2022-09-09T02:23:36;2.92;;;1.25;;
19280;SDS011;9774;52.034;5.342;2022-09-09T02:26:05;1.48;;;1.05;;
19280;SDS011;9774;52.034;5.342;2022-09-09T02:28:36;2.33;;;1.20;;
19280;SDS011;9774;52.034;5.342;2022-09-09T02:31:05;2.00;;;1.15;;
19280;SDS011;9774;52.034;5.342;2022-09-09T02:33:33;2.00;;;1.20;;
19280;SDS011;9774;52.034;5.342;2022-09-09T02:36:08;1.77;;;1.00;;
19280;SDS011;9774;52.034;5.342;2022-09-09T02:38:37;4.57;;;2.22;;
19280;SDS011;9774;52.034;5.342;2022-09-09T02:41:08;2.25;;;1.33;;
19280;SDS011;9774;52.034;5.342;2022-09-09T02:43:36;1.65;;;1.20;;
19280;SDS011;9774;52.034;5.342;2022-09-09T02:46:07;2.83;;;1.20;;
19280;SDS011;9774;52.034;5.342;2022-09-09T02:48:45;2.22;;;1.15;;
19280;SDS011;9774;52.034;5.342;2022-09-09T02:51:21;2.03;;;1.17;;
19280;SDS011;9774;52.034;5.342;2022-09-09T02:53:59;1.15;;;1.05;;
19280;SDS011;9774;52.034;5.342;2022-09-09T02:56:37;2.40;;;1.42;;
19280;SDS011;9774;52.034;5.342;2022-09-09T02:59:09;5.50;;;1.40;;
19280;SDS011;9774;52.034;5.342;2022-09-09T03:01:36;2.95;;;1.00;;
19280;SDS011;9774;52.034;5.342;2022-09-09T03:04:05;3.42;;;1.67;;
19280;SDS011;9774;52.034;5.342;2022-09-09T03:06:32;1.60;;;1.27;;
19280;SDS011;9774;52.034;5.342;2022-09-09T03:09:00;2.33;;;1.35;;
19280;SDS011;9774;52.034;5.342;2022-09-09T03:11:28;3.42;;;1.38;;
19280;SDS011;9774;52.034;5.342;2022-09-09T03:13:55;1.27;;;1.17;;
19280;SDS011;9774;52.034;5.342;2022-09-09T03:16:24;1.92;;;1.67;;
19280;SDS011;9774;52.034;5.342;2022-09-09T03:18:51;3.83;;;2.08;;
19280;SDS011;9774;52.034;5.342;2022-09-09T03:21:18;4.00;;;2.00;;
19280;SDS011;9774;52.034;5.342;2022-09-09T03:23:46;2.97;;;1.50;;
19280;SDS011;9774;52.034;5.342;2022-09-09T03:26:13;1.73;;;1.42;;
19280;SDS011;9774;52.034;5.342;2022-09-09T03:28:41;2.17;;;1.60;;
19280;SDS011;9774;52.034;5.342;2022-09-09T03:31:09;3.55;;;1.20;;
19280;SDS011;9774;52.034;5.342;2022-09-09T03:33:38;2.75;;;1.35;;
19280;SDS011;9774;52.034;5.342;2022-09-09T03:36:06;3.92;;;1.80;;
19280;SDS011;9774;52.034;5.342;2022-09-09T03:38:34;2.00;;;1.50;;
19280;SDS011;9774;52.034;5.342;2022-09-09T03:41:01;4.93;;;1.45;;
19280;SDS011;9774;52.034;5.342;2022-09-09T03:43:31;2.10;;;1.75;;
19280;SDS011;9774;52.034;5.342;2022-09-09T03:45:58;3.20;;;1.52;;
19280;SDS011;9774;52.034;5.342;2022-09-09T03:48:26;1.83;;;1.60;;
19280;SDS011;9774;52.034;5.342;2022-09-09T03:50:55;3.13;;;1.77;;
19280;SDS011;9774;52.034;5.342;2022-09-09T03:53:25;1.45;;;1.35;;
19280;SDS011;9774;52.034;5.342;2022-09-09T03:55:54;2.20;;;1.67;;
19280;SDS011;9774;52.034;5.342;2022-09-09T03:58:25;3.38;;;1.50;;
19280;SDS011;9774;52.034;5.342;2022-09-09T04:00:54;6.43;;;1.73;;
19280;SDS011;9774;52.034;5.342;2022-09-09T04:03:22;5.07;;;1.85;;
19280;SDS011;9774;52.034;5.342;2022-09-09T04:05:50;1.52;;;1.42;;
19280;SDS011;9774;52.034;5.342;2022-09-09T04:08:20;3.53;;;2.47;;
19280;SDS011;9774;52.034;5.342;2022-09-09T04:10:50;2.85;;;1.95;;
19280;SDS011;9774;52.034;5.342;2022-09-09T04:13:18;1.98;;;1.77;;
19280;SDS011;9774;52.034;5.342;2022-09-09T04:15:50;3.30;;;2.05;;
19280;SDS011;9774;52.034;5.342;2022-09-09T04:18:18;4.60;;;2.13;;
19280;SDS011;9774;52.034;5.342;2022-09-09T04:20:46;2.85;;;1.58;;
19280;SDS011;9774;52.034;5.342;2022-09-09T04:23:14;2.05;;;1.48;;
19280;SDS011;9774;52.034;5.342;2022-09-09T04:25:46;1.92;;;1.63;;
19280;SDS011;9774;52.034;5.342;2022-09-09T04:28:15;2.08;;;1.67;;
19280;SDS011;9774;52.034;5.342;2022-09-09T04:30:43;1.95;;;1.48;;
19280;SDS011;9774;52.034;5.342;2022-09-09T04:33:11;2.15;;;1.85;;
19280;SDS011;9774;52.034;5.342;2022-09-09T04:35:39;1.52;;;1.42;;
19280;SDS011;9774;52.034;5.342;2022-09-09T04:38:11;3.95;;;1.45;;
19280;SDS011;9774;52.034;5.342;2022-09-09T04:40:38;2.15;;;1.58;;
19280;SDS011;9774;52.034;5.342;2022-09-09T04:43:09;2.00;;;1.75;;
19280;SDS011;9774;52.034;5.342;2022-09-09T04:45:36;5.88;;;1.55;;
19280;SDS011;9774;52.034;5.342;2022-09-09T04:48:05;2.55;;;1.65;;
19280;SDS011;9774;52.034;5.342;2022-09-09T04:50:32;4.85;;;1.98;;
19280;SDS011;9774;52.034;5.342;2022-09-09T04:53:00;2.35;;;1.63;;
19280;SDS011;9774;52.034;5.342;2022-09-09T04:55:29;2.85;;;1.73;;
19280;SDS011;9774;52.034;5.342;2022-09-09T04:57:57;2.17;;;1.67;;
19280;SDS011;9774;52.034;5.342;2022-09-09T05:00:30;4.55;;;1.50;;
19280;SDS011;9774;52.034;5.342;2022-09-09T05:02:57;2.63;;;1.55;;
19280;SDS011;9774;52.034;5.342;2022-09-09T05:05:28;2.33;;;1.55;;
19280;SDS011;9774;52.034;5.342;2022-09-09T05:07:59;2.65;;;1.83;;
19280;SDS011;9774;52.034;5.342;2022-09-09T05:10:28;2.80;;;1.33;;
19280;SDS011;9774;52.034;5.342;2022-09-09T05:12:56;2.97;;;1.80;;
19280;SDS011;9774;52.034;5.342;2022-09-09T05:15:23;5.43;;;1.58;;
19280;SDS011;9774;52.034;5.342;2022-09-09T05:17:51;2.53;;;1.25;;
19280;SDS011;9774;52.034;5.342;2022-09-09T05:20:22;2.83;;;1.58;;
19280;SDS011;9774;52.034;5.342;2022-09-09T05:22:52;3.33;;;1.30;;
19280;SDS011;9774;52.034;5.342;2022-09-09T05:25:19;4.82;;;1.52;;
19280;SDS011;9774;52.034;5.342;2022-09-09T05:27:47;1.60;;;1.20;;
19280;SDS011;9774;52.034;5.342;2022-09-09T05:30:15;3.92;;;1.60;;
19280;SDS011;9774;52.034;5.342;2022-09-09T05:32:43;1.83;;;1.20;;
19280;SDS011;9774;52.034;5.342;2022-09-09T05:35:15;3.13;;;1.52;;
19280;SDS011;9774;52.034;5.342;2022-09-09T05:37:46;1.73;;;1.15;;
19280;SDS011;9774;52.034;5.342;2022-09-09T05:40:13;5.80;;;1.23;;
19280;SDS011;9774;52.034;5.342;2022-09-09T05:42:41;1.55;;;1.13;;
19280;SDS011;9774;52.034;5.342;2022-09-09T05:45:08;4.35;;;1.55;;
19280;SDS011;9774;52.034;5.342;2022-09-09T05:47:36;1.30;;;0.85;;
19280;SDS011;9774;52.034;5.342;2022-09-09T05:50:04;4.40;;;1.33;;
19280;SDS011;9774;52.034;5.342;2022-09-09T05:52:34;1.45;;;1.10;;
19280;SDS011;9774;52.034;5.342;2022-09-09T05:55:01;1.27;;;0.95;;
19280;SDS011;9774;52.034;5.342;2022-09-09T05:57:29;3.10;;;1.02;;
19280;SDS011;9774;52.034;5.342;2022-09-09T05:59:56;3.20;;;1.13;;
19280;SDS011;9774;52.034;5.342;2022-09-09T06:02:24;8.18;;;1.50;;
19280;SDS011;9774;52.034;5.342;2022-09-09T06:04:51;1.63;;;1.05;;
19280;SDS011;9774;52.034;5.342;2022-09-09T06:07:20;2.65;;;1.00;;
19280;SDS011;9774;52.034;5.342;2022-09-09T06:09:49;3.42;;;1.27;;
19280;SDS011;9774;52.034;5.342;2022-09-09T06:12:16;3.97;;;1.42;;
19280;SDS011;9774;52.034;5.342;2022-09-09T06:14:44;1.00;;;0.70;;
19280;SDS011;9774;52.034;5.342;2022-09-09T06:17:11;1.50;;;1.00;;
19280;SDS011;9774;52.034;5.342;2022-09-09T06:19:38;1.58;;;1.02;;
19280;SDS011;9774;52.034;5.342;2022-09-09T06:22:05;6.38;;;1.17;;
19280;SDS011;9774;52.034;5.342;2022-09-09T06:24:37;4.25;;;1.27;;
19280;SDS011;9774;52.034;5.342;2022-09-09T06:27:06;3.50;;;0.93;;
19280;SDS011;9774;52.034;5.342;2022-09-09T06:29:33;2.03;;;0.90;;
19280;SDS011;9774;52.034;5.342;2022-09-09T06:32:04;4.05;;;1.17;;
19280;SDS011;9774;52.034;5.342;2022-09-09T06:34:33;3.22;;;0.98;;
19280;SDS011;9774;52.034;5.342;2022-09-09T06:37:01;3.60;;;0.93;;
19280;SDS011;9774;52.034;5.342;2022-09-09T06:39:29;2.85;;;1.20;;
19280;SDS011;9774;52.034;5.342;2022-09-09T06:41:57;1.75;;;1.23;;
19280;SDS011;9774;52.034;5.342;2022-09-09T06:44:26;1.70;;;0.68;;
19280;SDS011;9774;52.034;5.342;2022-09-09T06:46:53;2.70;;;1.13;;
19280;SDS011;9774;52.034;5.342;2022-09-09T06:49:20;3.58;;;1.05;;
19280;SDS011;9774;52.034;5.342;2022-09-09T06:51:48;1.63;;;1.00;;
19280;SDS011;9774;52.034;5.342;2022-09-09T06:54:17;3.47;;;1.15;;
19280;SDS011;9774;52.034;5.342;2022-09-09T06:56:44;2.90;;;0.95;;
19280;SDS011;9774;52.034;5.342;2022-09-09T06:59:12;5.00;;;1.20;;
19280;SDS011;9774;52.034;5.342;2022-09-09T07:01:41;1.85;;;0.70;;
19280;SDS011;9774;52.034;5.342;2022-09-09T07:04:09;2.03;;;0.82;;
19280;SDS011;9774;52.034;5.342;2022-09-09T07:06:38;2.30;;;0.85;;
19280;SDS011;9774;52.034;5.342;2022-09-09T07:09:08;4.78;;;1.20;;
19280;SDS011;9774;52.034;5.342;2022-09-09T07:11:37;2.30;;;1.00;;
19280;SDS011;9774;52.034;5.342;2022-09-09T07:14:06;3.40;;;1.23;;
19280;SDS011;9774;52.034;5.342;2022-09-09T07:16:34;3.80;;;0.82;;
19280;SDS011;9774;52.034;5.342;2022-09-09T07:19:03;4.00;;;1.00;;
19280;SDS011;9774;52.034;5.342;2022-09-09T07:21:31;5.15;;;1.60;;
19280;SDS011;9774;52.034;5.342;2022-09-09T07:23:59;3.15;;;0.95;;
19280;SDS011;9774;52.034;5.342;2022-09-09T07:26:30;2.45;;;1.00;;
19280;SDS011;9774;52.034;5.342;2022-09-09T07:28:57;3.67;;;1.27;;
19280;SDS011;9774;52.034;5.342;2022-09-09T07:31:26;2.22;;;0.88;;
19280;SDS011;9774;52.034;5.342;2022-09-09T07:33:55;2.90;;;1.10;;
19280;SDS011;9774;52.034;5.342;2022-09-09T07:36:25;6.15;;;1.80;;
19280;SDS011;9774;52.034;5.342;2022-09-09T07:38:57;3.35;;;1.02;;
19280;SDS011;9774;52.034;5.342;2022-09-09T07:41:26;5.03;;;1.90;;
19280;SDS011;9774;52.034;5.342;2022-09-09T07:43:55;4.03;;;1.23;;
19280;SDS011;9774;52.034;5.342;2022-09-09T07:46:24;8.90;;;1.30;;
19280;SDS011;9774;52.034;5.342;2022-09-09T07:48:52;3.83;;;1.60;;
19280;SDS011;9774;52.034;5.342;2022-09-09T07:51:22;4.07;;;1.38;;
19280;SDS011;9774;52.034;5.342;2022-09-09T07:53:52;2.45;;;0.95;;
19280;SDS011;9774;52.034;5.342;2022-09-09T07:56:20;7.60;;;1.33;;
19280;SDS011;9774;52.034;5.342;2022-09-09T07:58:49;4.47;;;1.10;;
19280;SDS011;9774;52.034;5.342;2022-09-09T08:01:18;2.15;;;1.25;;
19280;SDS011;9774;52.034;5.342;2022-09-09T08:03:47;1.67;;;1.05;;
19280;SDS011;9774;52.034;5.342;2022-09-09T08:06:19;6.53;;;1.52;;
19280;SDS011;9774;52.034;5.342;2022-09-09T08:08:50;7.28;;;1.35;;
19280;SDS011;9774;52.034;5.342;2022-09-09T08:11:20;3.00;;;1.15;;
19280;SDS011;9774;52.034;5.342;2022-09-09T08:13:49;3.30;;;1.20;;
19280;SDS011;9774;52.034;5.342;2022-09-09T08:16:18;2.13;;;0.90;;
19280;SDS011;9774;52.034;5.342;2022-09-09T08:18:48;1.65;;;0.90;;
19280;SDS011;9774;52.034;5.342;2022-09-09T08:21:17;4.30;;;1.58;;
19280;SDS011;9774;52.034;5.342;2022-09-09T08:23:46;1.77;;;0.60;;
19280;SDS011;9774;52.034;5.342;2022-09-09T08:26:18;1.63;;;0.98;;
19280;SDS011;9774;52.034;5.342;2022-09-09T08:28:49;2.42;;;1.13;;
19280;SDS011;9774;52.034;5.342;2022-09-09T08:31:17;2.72;;;1.00;;
19280;SDS011;9774;52.034;5.342;2022-09-09T08:33:46;1.75;;;0.63;;
19280;SDS011;9774;52.034;5.342;2022-09-09T08:36:15;2.80;;;1.30;;
19280;SDS011;9774;52.034;5.342;2022-09-09T08:38:46;4.95;;;0.98;;
19280;SDS011;9774;52.034;5.342;2022-09-09T08:41:22;1.35;;;0.60;;
19280;SDS011;9774;52.034;5.342;2022-09-09T08:44:02;1.73;;;0.90;;
19280;SDS011;9774;52.034;5.342;2022-09-09T08:46:38;3.25;;;0.80;;
19280;SDS011;9774;52.034;5.342;2022-09-09T08:49:19;3.13;;;0.90;;
19280;SDS011;9774;52.034;5.342;2022-09-09T08:51:57;4.93;;;0.82;;
19280;SDS011;9774;52.034;5.342;2022-09-09T08:54:24;2.35;;;0.98;;
19280;SDS011;9774;52.034;5.342;2022-09-09T08:56:59;2.10;;;0.70;;
19280;SDS011;9774;52.034;5.342;2022-09-09T08:59:27;5.10;;;1.10;;
19280;SDS011;9774;52.034;5.342;2022-09-09T09:01:57;5.22;;;0.95;;
19280;SDS011;9774;52.034;5.342;2022-09-09T09:04:40;3.90;;;1.13;;
19280;SDS011;9774;52.034;5.342;2022-09-09T09:07:23;3.88;;;1.20;;
19280;SDS011;9774;52.034;5.342;2022-09-09T09:10:00;2.25;;;0.80;;
19280;SDS011;9774;52.034;5.342;2022-09-09T09:12:38;2.58;;;1.17;;
19280;SDS011;9774;52.034;5.342;2022-09-09T09:15:10;1.23;;;0.63;;
19280;SDS011;9774;52.034;5.342;2022-09-09T09:17:42;2.38;;;0.85;;
19280;SDS011;9774;52.034;5.342;2022-09-09T09:20:11;1.85;;;1.00;;
19280;SDS011;9774;52.034;5.342;2022-09-09T09:22:43;2.58;;;1.17;;
19280;SDS011;9774;52.034;5.342;2022-09-09T09:25:15;2.53;;;1.00;;
19280;SDS011;9774;52.034;5.342;2022-09-09T09:27:48;2.97;;;0.77;;
19280;SDS011;9774;52.034;5.342;2022-09-09T09:30:23;4.03;;;1.13;;
19280;SDS011;9774;52.034;5.342;2022-09-09T09:32:53;2.80;;;0.95;;
19280;SDS011;9774;52.034;5.342;2022-09-09T09:35:22;5.13;;;1.17;;
19280;SDS011;9774;52.034;5.342;2022-09-09T09:37:50;4.20;;;0.93;;
19280;SDS011;9774;52.034;5.342;2022-09-09T09:40:18;3.40;;;0.82;;
19280;SDS011;9774;52.034;5.342;2022-09-09T09:42:49;1.90;;;0.80;;
19280;SDS011;9774;52.034;5.342;2022-09-09T09:45:26;3.70;;;1.20;;
19280;SDS011;9774;52.034;5.342;2022-09-09T09:48:00;5.32;;;1.20;;
19280;SDS011;9774;52.034;5.342;2022-09-09T09:50:29;3.25;;;0.80;;
19280;SDS011;9774;52.034;5.342;2022-09-09T09:52:58;4.45;;;1.05;;
19280;SDS011;9774;52.034;5.342;2022-09-09T09:55:29;3.45;;;1.20;;
19280;SDS011;9774;52.034;5.342;2022-09-09T09:58:04;2.20;;;0.70;;
19280;SDS011;9774;52.034;5.342;2022-09-09T10:00:33;4.38;;;0.70;;
19280;SDS011;9774;52.034;5.342;2022-09-09T10:03:01;3.28;;;1.00;;
19280;SDS011;9774;52.034;5.342;2022-09-09T10:05:45;0.95;;;0.52;;
19280;SDS011;9774;52.034;5.342;2022-09-09T10:08:14;2.30;;;0.90;;
19280;SDS011;9774;52.034;5.342;2022-09-09T10:10:46;3.10;;;1.02;;
19280;SDS011;9774;52.034;5.342;2022-09-09T10:13:25;4.82;;;1.08;;
19280;SDS011;9774;52.034;5.342;2022-09-09T10:16:00;2.30;;;0.85;;
19280;SDS011;9774;52.034;5.342;2022-09-09T10:18:49;2.75;;;0.93;;
19280;SDS011;9774;52.034;5.342;2022-09-09T10:21:28;3.20;;;1.00;;
19280;SDS011;9774;52.034;5.342;2022-09-09T10:24:22;2.35;;;0.60;;
19280;SDS011;9774;52.034;5.342;2022-09-09T10:27:03;2.97;;;0.90;;
19280;SDS011;9774;52.034;5.342;2022-09-09T10:29:52;3.88;;;1.05;;
19280;SDS011;9774;52.034;5.342;2022-09-09T10:32:37;2.28;;;0.70;;
19280;SDS011;9774;52.034;5.342;2022-09-09T10:35:10;5.40;;;1.17;;
19280;SDS011;9774;52.034;5.342;2022-09-09T10:37:57;2.28;;;0.80;;
19280;SDS011;9774;52.034;5.342;2022-09-09T10:40:42;1.55;;;0.77;;
19280;SDS011;9774;52.034;5.342;2022-09-09T10:43:28;4.25;;;0.95;;
19280;SDS011;9774;52.034;5.342;2022-09-09T10:46:08;3.92;;;0.90;;
19280;SDS011;9774;52.034;5.342;2022-09-09T10:48:44;2.00;;;0.93;;
19280;SDS011;9774;52.034;5.342;2022-09-09T10:51:28;1.65;;;0.75;;
19280;SDS011;9774;52.034;5.342;2022-09-09T10:54:06;2.53;;;0.80;;
19280;SDS011;9774;52.034;5.342;2022-09-09T10:56:41;1.88;;;0.98;;
19280;SDS011;9774;52.034;5.342;2022-09-09T10:59:11;3.03;;;1.00;;
19280;SDS011;9774;52.034;5.342;2022-09-09T11:01:47;3.00;;;0.85;;
19280;SDS011;9774;52.034;5.342;2022-09-09T11:04:21;2.00;;;0.90;;
19280;SDS011;9774;52.034;5.342;2022-09-09T11:06:52;4.47;;;1.40;;
19280;SDS011;9774;52.034;5.342;2022-09-09T11:09:23;2.70;;;1.00;;
19280;SDS011;9774;52.034;5.342;2022-09-09T11:11:55;6.70;;;1.95;;
19280;SDS011;9774;52.034;5.342;2022-09-09T11:14:26;4.85;;;1.30;;
19280;SDS011;9774;52.034;5.342;2022-09-09T11:17:00;2.40;;;1.10;;
19280;SDS011;9774;52.034;5.342;2022-09-09T11:19:32;3.33;;;1.15;;
19280;SDS011;9774;52.034;5.342;2022-09-09T11:22:01;4.47;;;0.85;;
19280;SDS011;9774;52.034;5.342;2022-09-09T11:24:32;4.45;;;0.93;;
19280;SDS011;9774;52.034;5.342;2022-09-09T11:27:07;3.08;;;0.82;;
19280;SDS011;9774;52.034;5.342;2022-09-09T11:29:48;3.60;;;0.98;;
19280;SDS011;9774;52.034;5.342;2022-09-09T11:32:44;6.03;;;1.02;;
19280;SDS011;9774;52.034;5.342;2022-09-09T11:35:24;2.42;;;1.08;;
19280;SDS011;9774;52.034;5.342;2022-09-09T11:38:03;3.13;;;1.52;;
19280;SDS011;9774;52.034;5.342;2022-09-09T11:40:43;4.05;;;1.13;;
19280;SDS011;9774;52.034;5.342;2022-09-09T11:43:12;2.60;;;0.82;;
19280;SDS011;9774;52.034;5.342;2022-09-09T11:45:42;2.50;;;1.02;;
19280;SDS011;9774;52.034;5.342;2022-09-09T11:48:25;1.92;;;0.80;;
19280;SDS011;9774;52.034;5.342;2022-09-09T11:51:00;2.55;;;1.23;;
19280;SDS011;9774;52.034;5.342;2022-09-09T11:53:30;2.30;;;0.70;;
19280;SDS011;9774;52.034;5.342;2022-09-09T11:58:54;1.45;;;0.95;;
19280;SDS011;9774;52.034;5.342;2022-09-09T12:01:34;2.45;;;1.33;;
19280;SDS011;9774;52.034;5.342;2022-09-09T12:07:05;2.42;;;0.80;;
19280;SDS011;9774;52.034;5.342;2022-09-09T12:09:55;2.92;;;0.80;;
19280;SDS011;9774;52.034;5.342;2022-09-09T12:12:26;1.65;;;0.70;;
19280;SDS011;9774;52.034;5.342;2022-09-09T12:17:50;3.75;;;0.70;;
19280;SDS011;9774;52.034;5.342;2022-09-09T12:20:21;2.92;;;0.88;;
19280;SDS011;9774;52.034;5.342;2022-09-09T12:22:56;4.95;;;1.27;;
19280;SDS011;9774;52.034;5.342;2022-09-09T12:25:32;2.55;;;0.90;;
19280;SDS011;9774;52.034;5.342;2022-09-09T12:28:09;2.08;;;1.00;;
19280;SDS011;9774;52.034;5.342;2022-09-09T12:30:44;1.98;;;1.02;;
19280;SDS011;9774;52.034;5.342;2022-09-09T12:33:17;1.75;;;0.95;;
19280;SDS011;9774;52.034;5.342;2022-09-09T12:35:47;3.53;;;1.30;;
19280;SDS011;9774;52.034;5.342;2022-09-09T12:38:22;3.63;;;0.80;;
19280;SDS011;9774;52.034;5.342;2022-09-09T12:40:57;21.35;;;1.77;;
19280;SDS011;9774;52.034;5.342;2022-09-09T12:43:26;1.67;;;0.98;;
19280;SDS011;9774;52.034;5.342;2022-09-09T12:45:55;5.72;;;1.00;;
19280;SDS011;9774;52.034;5.342;2022-09-09T12:48:27;2.00;;;1.30;;
19280;SDS011;9774;52.034;5.342;2022-09-09T12:50:59;2.60;;;0.88;;
19280;SDS011;9774;52.034;5.342;2022-09-09T12:53:29;2.50;;;0.93;;
19280;SDS011;9774;52.034;5.342;2022-09-09T12:56:00;3.67;;;1.15;;
19280;SDS011;9774;52.034;5.342;2022-09-09T12:58:30;1.15;;;0.77;;
19280;SDS011;9774;52.034;5.342;2022-09-09T13:00:59;1.42;;;0.70;;
19280;SDS011;9774;52.034;5.342;2022-09-09T13:03:29;2.45;;;1.05;;
19280;SDS011;9774;52.034;5.342;2022-09-09T13:06:10;3.08;;;0.85;;
19280;SDS011;9774;52.034;5.342;2022-09-09T13:08:39;5.47;;;1.20;;
19280;SDS011;9774;52.034;5.342;2022-09-09T13:11:07;5.35;;;1.13;;
19280;SDS011;9774;52.034;5.342;2022-09-09T13:13:39;1.40;;;0.85;;
19280;SDS011;9774;52.034;5.342;2022-09-09T13:16:17;2.22;;;0.90;;
19280;SDS011;9774;52.034;5.342;2022-09-09T13:18:47;4.07;;;1.08;;
19280;SDS011;9774;52.034;5.342;2022-09-09T13:21:17;3.08;;;1.20;;
19280;SDS011;9774;52.034;5.342;2022-09-09T13:23:48;1.63;;;1.00;;
19280;SDS011;9774;52.034;5.342;2022-09-09T13:26:20;1.60;;;0.90;;
19280;SDS011;9774;52.034;5.342;2022-09-09T13:28:49;2.03;;;0.90;;
19280;SDS011;9774;52.034;5.342;2022-09-09T13:31:21;10.27;;;1.55;;
19280;SDS011;9774;52.034;5.342;2022-09-09T13:33:52;1.02;;;0.70;;
19280;SDS011;9774;52.034;5.342;2022-09-09T13:36:28;1.17;;;0.77;;
19280;SDS011;9774;52.034;5.342;2022-09-09T13:38:57;1.15;;;0.90;;
19280;SDS011;9774;52.034;5.342;2022-09-09T13:41:28;1.25;;;0.82;;
19280;SDS011;9774;52.034;5.342;2022-09-09T13:43:58;2.50;;;0.93;;
19280;SDS011;9774;52.034;5.342;2022-09-09T13:46:31;2.10;;;0.73;;
19280;SDS011;9774;52.034;5.342;2022-09-09T13:49:00;3.92;;;1.35;;
19280;SDS011;9774;52.034;5.342;2022-09-09T13:51:47;1.75;;;1.05;;
19280;SDS011;9774;52.034;5.342;2022-09-09T13:54:16;3.03;;;1.05;;
19280;SDS011;9774;52.034;5.342;2022-09-09T13:56:44;1.83;;;1.30;;
19280;SDS011;9774;52.034;5.342;2022-09-09T13:59:13;3.05;;;1.20;;
19280;SDS011;9774;52.034;5.342;2022-09-09T14:01:41;2.95;;;1.30;;
19280;SDS011;9774;52.034;5.342;2022-09-09T14:04:09;2.70;;;1.20;;
19280;SDS011;9774;52.034;5.342;2022-09-09T14:06:37;3.35;;;1.10;;
19280;SDS011;9774;52.034;5.342;2022-09-09T14:09:07;2.75;;;1.27;;
19280;SDS011;9774;52.034;5.342;2022-09-09T14:11:36;3.58;;;1.10;;
19280;SDS011;9774;52.034;5.342;2022-09-09T14:14:03;3.67;;;1.08;;
19280;SDS011;9774;52.034;5.342;2022-09-09T14:18:58;3.22;;;1.00;;
19280;SDS011;9774;52.034;5.342;2022-09-09T14:21:26;2.30;;;1.15;;
19280;SDS011;9774;52.034;5.342;2022-09-09T14:23:54;1.67;;;0.80;;
19280;SDS011;9774;52.034;5.342;2022-09-09T14:26:25;2.10;;;0.90;;
19280;SDS011;9774;52.034;5.342;2022-09-09T14:28:53;2.55;;;1.10;;
19280;SDS011;9774;52.034;5.342;2022-09-09T14:31:22;2.17;;;0.93;;
19280;SDS011;9774;52.034;5.342;2022-09-09T14:33:50;1.33;;;0.90;;
19280;SDS011;9774;52.034;5.342;2022-09-09T14:36:17;2.45;;;1.08;;
19280;SDS011;9774;52.034;5.342;2022-09-09T14:38:47;4.28;;;0.82;;
19280;SDS011;9774;52.034;5.342;2022-09-09T14:41:16;2.17;;;1.00;;
19280;SDS011;9774;52.034;5.342;2022-09-09T14:43:46;2.13;;;0.73;;
19280;SDS011;9774;52.034;5.342;2022-09-09T14:46:14;2.05;;;0.93;;
19280;SDS011;9774;52.034;5.342;2022-09-09T14:48:43;3.78;;;1.10;;
19280;SDS011;9774;52.034;5.342;2022-09-09T14:51:14;1.08;;;0.70;;
19280;SDS011;9774;52.034;5.342;2022-09-09T14:53:44;1.83;;;0.82;;
19280;SDS011;9774;52.034;5.342;2022-09-09T14:56:13;2.45;;;1.10;;
19280;SDS011;9774;52.034;5.342;2022-09-09T14:58:41;3.67;;;1.45;;
19280;SDS011;9774;52.034;5.342;2022-09-09T15:01:11;1.30;;;0.90;;
19280;SDS011;9774;52.034;5.342;2022-09-09T15:03:40;1.98;;;0.73;;
19280;SDS011;9774;52.034;5.342;2022-09-09T15:06:08;0.60;;;0.60;;
19280;SDS011;9774;52.034;5.342;2022-09-09T15:08:37;1.20;;;0.70;;
19280;SDS011;9774;52.034;5.342;2022-09-09T15:11:06;0.82;;;0.52;;
19280;SDS011;9774;52.034;5.342;2022-09-09T15:13:35;1.25;;;0.55;;
19280;SDS011;9774;52.034;5.342;2022-09-09T15:16:03;1.17;;;0.60;;
19280;SDS011;9774;52.034;5.342;2022-09-09T15:18:32;1.05;;;0.40;;
19280;SDS011;9774;52.034;5.342;2022-09-09T15:21:01;1.40;;;0.70;;
19280;SDS011;9774;52.034;5.342;2022-09-09T15:23:30;1.27;;;0.60;;
19280;SDS011;9774;52.034;5.342;2022-09-09T15:25:58;1.27;;;0.60;;
19280;SDS011;9774;52.034;5.342;2022-09-09T15:28:25;0.85;;;0.55;;
19280;SDS011;9774;52.034;5.342;2022-09-09T15:30:53;1.00;;;0.50;;
19280;SDS011;9774;52.034;5.342;2022-09-09T15:33:22;1.17;;;0.50;;
19280;SDS011;9774;52.034;5.342;2022-09-09T15:35:51;3.22;;;0.93;;
19280;SDS011;9774;52.034;5.342;2022-09-09T15:38:19;0.63;;;0.40;;
19280;SDS011;9774;52.034;5.342;2022-09-09T15:40:52;4.75;;;0.80;;